Time;durP1;ratioP1;P1;durP2;ratioP2;P2;SDS_P1;SDS_P2;PMS_P1;PMS_P2;Temp;Humidity;BMP_temperature;BMP_pressure;BME280_temperature;BME280_humidity;BME280_pressure;Samples;Min_cycle;Max_cycle;Signal;HPM_P1;HPM_P2
2022/05/21 00:00:34;;;;;;;7.67;6.97;;;13.30;99.90;;;;;;5073332;28;20447;-63
2022/05/21 00:03:01;;;;;;;7.60;6.17;;;13.30;99.90;;;;;;5073002;28;20451;-63
2022/05/21 00:05:30;;;;;;;6.40;5.80;;;13.30;99.90;;;;;;5073428;28;20855;-64
2022/05/21 00:07:59;;;;;;;6.57;5.80;;;13.30;99.90;;;;;;5073961;28;20795;-64
2022/05/21 00:10:28;;;;;;;5.67;4.50;;;13.40;99.90;;;;;;5073700;28;20447;-64
2022/05/21 00:12:56;;;;;;;6.07;4.67;;;13.40;99.90;;;;;;5074002;28;20447;-63
2022/05/21 00:15:25;;;;;;;5.43;5.03;;;13.30;99.90;;;;;;5073479;28;20485;-64
2022/05/21 00:17:52;;;;;;;4.60;4.20;;;13.30;99.90;;;;;;5074669;28;20443;-64
2022/05/21 00:23:10;;;;;;;6.47;5.00;;;13.30;99.90;;;;;;5059824;28;20488;-64
2022/05/21 00:25:37;;;;;;;5.40;4.90;;;13.20;99.90;;;;;;5076818;28;20799;-65
2022/05/21 00:28:05;;;;;;;3.70;3.30;;;;;;;;;;5077441;28;20485;-65
2022/05/21 00:30:33;;;;;;;6.13;3.50;;;;;;;;;;5076817;28;20934;-65
2022/05/21 00:33:00;;;;;;;3.43;3.13;;;;;;;;;;5078284;28;20938;-64
2022/05/21 00:35:28;;;;;;;3.70;3.17;;;;;;;;;;5078972;28;20474;-64
2022/05/21 00:37:55;;;;;;;4.53;3.90;;;;;;;;;;5077162;28;20966;-64
2022/05/21 00:40:24;;;;;;;4.50;4.10;;;;;;;;;;5076891;28;20447;-63
2022/05/21 00:42:52;;;;;;;6.17;4.23;;;;;;;;;;5077810;28;20446;-63
2022/05/21 00:45:19;;;;;;;5.60;4.13;;;;;;;;;;5077977;28;20446;-64
2022/05/21 00:47:47;;;;;;;5.00;4.33;;;13.10;99.90;;;;;;5078328;28;20946;-64
2022/05/21 00:50:17;;;;;;;6.70;5.10;;;12.60;99.90;;;;;;5078420;28;20447;-64
2022/05/21 00:52:45;;;;;;;6.77;4.40;;;12.60;99.90;;;;;;5079469;28;20511;-64
2022/05/21 00:55:27;;;;;;;5.00;4.30;;;12.60;99.90;;;;;;5078425;28;20486;-64
2022/05/21 01:00:44;;;;;;;4.83;4.43;;;12.70;99.90;;;;;;5077482;28;20461;-65
2022/05/21 01:03:13;;;;;;;5.40;4.97;;;12.70;99.90;;;;;;5078987;28;20454;-64
2022/05/21 01:05:40;;;;;;;5.13;4.63;;;12.70;99.90;;;;;;5077803;28;20451;-64
2022/05/21 01:08:08;;;;;;;4.13;3.50;;;12.70;99.90;;;;;;5076803;28;20479;-65
2022/05/21 01:10:39;;;;;;;5.07;3.63;;;12.70;99.90;;;;;;5077634;28;20449;-64
2022/05/21 01:13:11;;;;;;;4.10;3.70;;;12.70;99.90;;;;;;5081864;28;20427;-64
2022/05/21 01:15:43;;;;;;;4.77;4.10;;;12.70;99.90;;;;;;5082916;28;20462;-65
2022/05/21 01:18:10;;;;;;;4.73;3.33;;;12.70;99.90;;;;;;5079087;28;20455;-64
2022/05/21 01:20:39;;;;;;;6.77;3.80;;;12.60;99.90;;;;;;5076139;28;20439;-65
2022/05/21 01:23:09;;;;;;;5.67;3.73;;;12.50;99.90;;;;;;5076241;28;20443;-65
2022/05/21 01:25:38;;;;;;;4.27;3.87;;;12.50;99.90;;;;;;5076192;28;20458;-63
2022/05/21 01:28:08;;;;;;;4.20;3.70;;;12.40;99.90;;;;;;5075832;28;20474;-64
2022/05/21 01:30:39;;;;;;;4.80;3.70;;;12.40;99.90;;;;;;5075955;28;20500;-64
2022/05/21 01:33:08;;;;;;;4.20;3.80;;;;;;;;;;5094270;28;20427;-64
2022/05/21 01:35:35;;;;;;;3.87;3.43;;;;;;;;;;5085134;28;20574;-63
2022/05/21 01:38:03;;;;;;;4.93;3.90;;;;;;;;;;5075411;28;20447;-62
2022/05/21 01:40:32;;;;;;;4.90;3.80;;;;;;;;;;5075765;28;20435;-64
2022/05/21 01:45:45;;;;;;;4.60;4.20;;;;;;;;;;5076117;28;20406;-63
2022/05/21 01:48:18;;;;;;;10.50;4.50;;;;;;;;;;5075704;28;20528;-63
2022/05/21 01:50:46;;;;;;;5.57;4.10;;;;;;;;;;5081757;28;20485;-64
2022/05/21 01:53:14;;;;;;;4.77;4.37;;;;;;;;;;5086259;28;20451;-63
2022/05/21 01:55:43;;;;;;;5.13;4.73;;;;;;;;;;5085285;28;20514;-63
2022/05/21 01:58:10;;;;;;;6.00;4.50;;;;;;;;;;5084486;28;20467;-64
2022/05/21 02:00:38;;;;;;;4.73;4.33;;;;;;;;;;5087067;28;20443;-64
2022/05/21 02:03:06;;;;;;;4.60;3.90;;;;;;;;;;5095625;28;20454;-64
2022/05/21 02:05:33;;;;;;;6.33;4.63;;;;;;;;;;5093795;28;20431;-64
2022/05/21 02:08:00;;;;;;;10.30;4.77;;;;;;;;;;5094288;28;20451;-64
2022/05/21 02:10:28;;;;;;;5.57;4.47;;;;;;;;;;5094302;28;20439;-65
2022/05/21 02:12:56;;;;;;;5.57;5.13;;;;;;;;;;5093545;28;20446;-63
2022/05/21 02:15:24;;;;;;;5.60;5.10;;;;;;;;;;5093220;28;20485;-66
2022/05/21 02:17:51;;;;;;;5.70;5.20;;;;;;;;;;5092708;28;20435;-64
2022/05/21 02:20:18;;;;;;;6.47;5.60;;;;;;;;;;5086334;28;20450;-64
2022/05/21 02:22:46;;;;;;;7.97;6.27;;;;;;;;;;5083587;28;20450;-63
2022/05/21 02:25:14;;;;;;;5.80;5.30;;;;;;;;;;5086180;28;20442;-64
2022/05/21 02:27:42;;;;;;;6.30;5.70;;;;;;;;;;5080188;28;20449;-64
2022/05/21 02:30:12;;;;;;;7.17;5.67;;;;;;;;;;5079980;28;20447;-64
2022/05/21 02:32:39;;;;;;;6.43;5.57;;;;;;;;;;5077219;28;20439;-63
2022/05/21 02:35:07;;;;;;;6.70;5.87;;;;;;;;;;5075205;28;20486;-64
2022/05/21 02:40:19;;;;;;;7.97;6.07;;;;;;;;;;5044081;28;20434;-65
2022/05/21 02:42:47;;;;;;;11.07;6.70;;;;;;;;;;5074696;28;20439;-64
2022/05/21 02:45:17;;;;;;;7.73;7.03;;;;;;;;;;5074510;28;20435;-64
2022/05/21 02:47:44;;;;;;;8.67;6.93;;;;;;;;;;5073901;28;20439;-63
2022/05/21 02:50:12;;;;;;;7.87;7.07;;;;;;;;;;5073686;28;20446;-64
2022/05/21 02:52:39;;;;;;;6.60;6.00;;;;;;;;;;5074559;28;20450;-64
2022/05/21 02:55:07;;;;;;;7.40;6.70;;;;;;;;;;5074377;28;20477;-62
2022/05/21 02:57:35;;;;;;;9.70;8.50;;;;;;;;;;5074353;28;20443;-63
2022/05/21 03:00:02;;;;;;;8.33;7.53;;;;;;;;;;5073989;28;20463;-63
2022/05/21 03:02:31;;;;;;;9.32;7.88;;;;;;;;;;5074004;28;20487;-64
2022/05/21 03:04:58;;;;;;;10.73;9.70;;;;;;;;;;5074251;28;20292;-65
2022/05/21 03:07:25;;;;;;;9.20;7.83;;;;;;;;;;5074007;28;20522;-64
2022/05/21 03:12:38;;;;;;;9.10;7.50;;;;;;;;;;5073975;28;20418;-64
2022/05/21 03:15:05;;;;;;;11.43;9.13;;;;;;;;;;5073295;28;20474;-64
2022/05/21 03:17:34;;;;;;;8.50;7.60;;;;;;;;;;5073700;28;20959;-64
2022/05/21 03:20:02;;;;;;;8.23;7.43;;;;;;;;;;5073829;28;20520;-64
2022/05/21 03:22:29;;;;;;;11.07;7.87;;;;;;;;;;5074226;28;20965;-64
2022/05/21 03:24:56;;;;;;;8.43;7.67;;;;;;;;;;5074323;28;20938;-63
2022/05/21 03:27:24;;;;;;;9.07;7.00;;;;;;;;;;5073969;28;20926;-64
2022/05/21 03:29:51;;;;;;;9.47;7.23;;;;;;;;;;5073686;28;20466;-64
2022/05/21 03:32:18;;;;;;;9.10;7.07;;;;;;;;;;5074103;28;20451;-62
2022/05/21 03:34:47;;;;;;;7.23;6.53;;;;;;;;;;5074371;28;20475;-64
2022/05/21 03:37:14;;;;;;;9.10;6.80;;;;;;;;;;5089844;28;20514;-65
2022/05/21 03:39:42;;;;;;;8.70;7.40;;;;;;;;;;5073770;28;20973;-63
2022/05/21 03:42:09;;;;;;;8.83;7.57;;;;;;;;;;5073714;28;20549;-63
2022/05/21 03:44:37;;;;;;;8.70;7.33;;;;;;;;;;5073588;28;20820;-62
2022/05/21 03:47:04;;;;;;;8.40;7.50;;;;;;;;;;5073647;28;20439;-64
2022/05/21 03:49:31;;;;;;;8.83;7.57;;;;;;;;;;5073455;28;20463;-64
2022/05/21 03:52:01;;;;;;;9.18;8.25;;;;;;;;;;5073053;28;20451;-64
2022/05/21 03:54:28;;;;;;;8.77;7.70;;;;;;;;;;5073480;28;20550;-64
2022/05/21 03:56:55;;;;;;;8.77;7.70;;;;;;;;;;5073430;28;20443;-63
2022/05/21 03:59:22;;;;;;;8.40;6.97;;;;;;;;;;5073181;28;20475;-63
2022/05/21 04:01:50;;;;;;;8.20;7.40;;;12.30;99.90;;;;;;5073630;28;20454;-63
2022/05/21 04:04:17;;;;;;;9.23;7.33;;;12.00;99.90;;;;;;5078725;28;20973;-64
2022/05/21 04:09:46;;;;;;;7.30;6.60;;;12.70;99.90;;;;;;5090860;27;20553;-65
2022/05/21 04:12:13;;;;;;;7.40;6.70;;;13.10;99.90;;;;;;5091128;28;20457;-63
2022/05/21 04:14:41;;;;;;;7.43;6.73;;;13.40;99.90;;;;;;5091783;28;20431;-63
2022/05/21 04:17:13;;;;;;;11.03;7.60;;;13.60;99.90;;;;;;5091003;28;20450;-65
2022/05/21 04:19:41;;;;;;;8.57;6.80;;;13.90;99.90;;;;;;5090476;28;20957;-63
2022/05/21 04:22:08;;;;;;;7.30;6.20;;;14.10;99.90;;;;;;5090405;28;20446;-63
2022/05/21 04:24:35;;;;;;;8.60;6.60;;;14.30;99.90;;;;;;5090474;28;20453;-63
2022/05/21 04:27:04;;;;;;;7.73;7.03;;;14.50;99.90;;;;;;5090558;28;20438;-63
2022/05/21 04:29:31;;;;;;;7.77;6.40;;;14.70;99.90;;;;;;5090504;28;20482;-61
2022/05/21 04:31:59;;;;;;;8.77;7.27;;;14.80;99.90;;;;;;5091211;28;20492;-63
2022/05/21 04:34:26;;;;;;;9.80;8.20;;;14.60;99.90;;;;;;5089577;28;20450;-64
2022/05/21 04:36:53;;;;;;;12.43;7.60;;;14.30;99.90;;;;;;5090226;28;20481;-63
2022/05/21 04:39:20;;;;;;;10.27;9.30;;;14.10;99.90;;;;;;5090335;28;20462;-64
2022/05/21 04:41:47;;;;;;;10.47;8.83;;;13.90;99.90;;;;;;5090065;28;20453;-64
2022/05/21 04:44:15;;;;;;;9.93;8.93;;;13.70;99.90;;;;;;5090025;28;20446;-64
2022/05/21 04:46:43;;;;;;;10.30;9.27;;;13.60;99.90;;;;;;5090360;28;20442;-62
2022/05/21 04:49:10;;;;;;;11.13;9.93;;;13.60;99.90;;;;;;5090699;28;20910;-63
2022/05/21 04:51:39;;;;;;;10.73;9.73;;;13.50;99.90;;;;;;5090645;28;20438;-62
2022/05/21 04:54:07;;;;;;;12.00;10.10;;;13.50;99.90;;;;;;5090162;28;20442;-63
2022/05/21 04:56:34;;;;;;;12.60;10.83;;;13.50;99.90;;;;;;5090224;28;20449;-63
2022/05/21 04:59:01;;;;;;;12.43;11.10;;;13.50;99.90;;;;;;5090462;28;20462;-63
2022/05/21 05:01:31;;;;;;;12.37;10.23;;;13.50;99.90;;;;;;5090039;28;20470;-64
2022/05/21 05:03:58;;;;;;;14.23;12.00;;;13.40;99.90;;;;;;5090139;28;20445;-65
2022/05/21 05:06:25;;;;;;;14.50;13.03;;;13.40;99.90;;;;;;5089889;28;20468;-65
2022/05/21 05:08:52;;;;;;;14.30;12.20;;;13.50;99.90;;;;;;5089110;28;20482;-63
2022/05/21 05:11:19;;;;;;;13.60;12.20;;;13.70;99.90;;;;;;5089558;28;20450;-63
2022/05/21 05:13:46;;;;;;;13.10;11.80;;;13.80;99.90;;;;;;5089674;28;20445;-63
2022/05/21 05:16:14;;;;;;;13.57;12.23;;;13.90;99.90;;;;;;5089795;28;20473;-64
2022/05/21 05:18:42;;;;;;;14.70;13.17;;;13.80;99.90;;;;;;5089712;28;20467;-65
2022/05/21 05:21:09;;;;;;;15.90;13.37;;;13.70;99.90;;;;;;5076190;28;20451;-63
2022/05/21 05:23:36;;;;;;;16.23;14.53;;;13.70;99.90;;;;;;5076228;28;20450;-63
2022/05/21 05:26:04;;;;;;;15.90;14.37;;;13.60;99.90;;;;;;5076276;28;20539;-65
2022/05/21 05:28:31;;;;;;;16.30;14.80;;;13.60;99.90;;;;;;5075709;28;20487;-64
2022/05/21 05:30:58;;;;;;;16.60;14.93;;;13.60;99.90;;;;;;5075751;28;20938;-63
2022/05/21 05:33:26;;;;;;;17.67;15.90;;;13.70;99.90;;;;;;5076432;28;20442;-62
2022/05/21 05:35:55;;;;;;;18.33;16.50;;;13.80;99.90;;;;;;5076491;28;20885;-64
2022/05/21 05:38:23;;;;;;;18.93;15.50;;;13.90;99.90;;;;;;5078385;28;20470;-63
2022/05/21 05:40:52;;;;;;;19.20;17.20;;;14.00;99.90;;;;;;5081230;28;20439;-63
2022/05/21 05:43:21;;;;;;;18.00;16.20;;;14.00;99.90;;;;;;5076797;28;20545;-64
2022/05/21 05:45:50;;;;;;;19.47;17.50;;;14.00;99.90;;;;;;5076267;28;20451;-64
2022/05/21 05:48:17;;;;;;;19.60;17.47;;;14.00;99.90;;;;;;5076568;28;20486;-63
2022/05/21 05:50:44;;;;;;;21.03;19.00;;;13.90;99.90;;;;;;5076840;28;20454;-63
2022/05/21 05:53:13;;;;;;;21.60;19.50;;;13.90;99.90;;;;;;5075906;28;20442;-62
2022/05/21 05:55:42;;;;;;;20.90;18.83;;;13.90;99.90;;;;;;5076266;28;20458;-62
2022/05/21 06:00:52;;;;;;;24.13;21.93;;;13.80;99.90;;;;;;5085613;28;20431;-63
2022/05/21 06:03:20;;;;;;;21.77;19.37;;;13.80;99.90;;;;;;5084746;28;20874;-64
2022/05/21 06:05:49;;;;;;;21.77;19.67;;;13.80;99.90;;;;;;5085187;28;20435;-64
2022/05/21 06:08:18;;;;;;;23.67;21.23;;;13.70;99.90;;;;;;5076300;28;20928;-64
2022/05/21 06:10:48;;;;;;;22.33;19.93;;;13.70;99.90;;;;;;5075970;28;20442;-62
2022/05/21 06:13:15;;;;;;;21.83;19.83;;;13.80;99.90;;;;;;5076887;28;20797;-64
2022/05/21 06:15:43;;;;;;;22.57;20.23;;;13.80;99.90;;;;;;5076835;28;20439;-62
2022/05/21 06:18:13;;;;;;;21.43;19.33;;;13.80;99.90;;;;;;5076918;28;20470;-64
2022/05/21 06:20:40;;;;;;;21.30;19.03;;;13.80;99.90;;;;;;5076363;28;20447;-63
2022/05/21 06:23:08;;;;;;;20.40;18.27;;;13.80;99.90;;;;;;5076306;28;20817;-64
2022/05/21 06:25:36;;;;;;;23.10;20.10;;;13.80;99.90;;;;;;5078033;22;20499;-58
2022/05/21 06:28:05;;;;;;;22.10;19.00;;;13.80;99.90;;;;;;5034478;28;20467;-60
2022/05/21 06:30:34;;;;;;;20.37;18.37;;;13.80;99.90;;;;;;5034053;28;20441;-61
2022/05/21 06:33:12;;;;;;;22.70;19.00;;;13.90;99.90;;;;;;5026776;28;20467;-60
2022/05/21 06:35:39;;;;;;;21.03;19.03;;;14.00;99.90;;;;;;5027622;28;20480;-60
2022/05/21 06:38:06;;;;;;;20.93;18.73;;;14.20;99.90;;;;;;5025919;28;20534;-61
2022/05/21 06:40:33;;;;;;;20.30;18.30;;;14.20;99.90;;;;;;5027014;28;20941;-60
2022/05/21 06:43:02;;;;;;;26.13;19.20;;;14.40;99.90;;;;;;5028664;28;20485;-61
2022/05/21 06:45:29;;;;;;;19.47;17.20;;;14.50;99.90;;;;;;5028222;28;20480;-59
2022/05/21 06:48:01;;;;;;;20.83;18.80;;;14.60;99.90;;;;;;5022527;28;20468;-60
2022/05/21 06:50:28;;;;;;;20.93;18.83;;;14.50;99.90;;;;;;5032017;28;20479;-62
2022/05/21 06:52:56;;;;;;;16.90;15.20;;;14.50;99.90;;;;;;5025270;28;20550;-60
2022/05/21 06:55:23;;;;;;;17.23;15.53;;;14.50;99.90;;;;;;5031521;28;20495;-61
2022/05/21 06:57:50;;;;;;;17.60;15.90;;;14.50;99.90;;;;;;5028616;28;20464;-60
2022/05/21 07:00:21;;;;;;;17.73;16.00;;;14.50;99.90;;;;;;5031798;28;20472;-61
2022/05/21 07:02:48;;;;;;;19.63;17.40;;;14.50;99.90;;;;;;5033571;28;20449;-61
2022/05/21 07:08:01;;;;;;;17.17;15.40;;;14.60;99.90;;;;;;5033684;28;20733;-59
2022/05/21 07:10:29;;;;;;;15.80;14.30;;;14.60;99.90;;;;;;5033359;28;21007;-61
2022/05/21 07:12:56;;;;;;;13.83;12.40;;;14.80;99.90;;;;;;5032908;28;20508;-60
2022/05/21 07:15:25;;;;;;;15.03;13.53;;;14.90;99.90;;;;;;5031885;28;20481;-61
2022/05/21 07:17:59;;;;;;;13.10;11.33;;;14.90;99.80;;;;;;5033985;28;20475;-59
2022/05/21 07:20:26;;;;;;;12.77;11.50;;;14.90;99.60;;;;;;5032650;28;20449;-58
2022/05/21 07:22:53;;;;;;;12.10;10.70;;;14.90;99.60;;;;;;5033553;28;20452;-59
2022/05/21 07:25:23;;;;;;;13.73;10.83;;;15.00;99.60;;;;;;5033166;28;20483;-59
2022/05/21 07:27:50;;;;;;;12.87;10.80;;;15.00;99.40;;;;;;5032809;28;20542;-59
2022/05/21 07:30:18;;;;;;;13.67;11.10;;;15.10;99.40;;;;;;5033015;28;20484;-59
2022/05/21 07:32:48;;;;;;;11.43;10.13;;;15.20;99.10;;;;;;5031183;28;20469;-59
2022/05/21 07:35:16;;;;;;;10.20;9.20;;;15.30;98.60;;;;;;5029247;28;20566;-59
2022/05/21 07:37:43;;;;;;;10.83;9.37;;;15.30;98.30;;;;;;5032908;28;20460;-59
2022/05/21 07:40:13;;;;;;;13.43;9.93;;;15.30;98.20;;;;;;5033173;28;20441;-61
2022/05/21 07:42:40;;;;;;;10.70;9.23;;;15.30;98.20;;;;;;5032622;28;20882;-60
2022/05/21 07:45:09;;;;;;;9.77;8.73;;;15.40;97.90;;;;;;5032832;28;20499;-60
2022/05/21 07:47:37;;;;;;;10.80;8.23;;;15.40;97.50;;;;;;5032990;28;20452;-59
2022/05/21 07:50:08;;;;;;;11.10;8.40;;;15.60;97.40;;;;;;5032565;28;20481;-59
2022/05/21 07:52:35;;;;;;;12.33;9.23;;;15.80;96.90;;;;;;5030535;28;20493;-60
2022/05/21 07:55:02;;;;;;;11.70;8.70;;;15.90;96.40;;;;;;5032625;28;20465;-59
2022/05/21 07:57:30;;;;;;;10.27;8.40;;;16.00;96.00;;;;;;5033979;28;20471;-59
2022/05/21 07:59:58;;;;;;;10.30;7.77;;;16.30;95.80;;;;;;5033394;28;20480;-61
2022/05/21 08:02:25;;;;;;;12.70;8.13;;;16.50;94.10;;;;;;5032686;28;20945;-59
2022/05/21 08:04:52;;;;;;;8.10;6.80;;;16.70;93.80;;;;;;5032859;28;20814;-60
2022/05/21 08:07:21;;;;;;;9.70;7.27;;;16.80;93.50;;;;;;5033141;28;20444;-60
2022/05/21 08:09:49;;;;;;;7.80;6.13;;;16.80;92.50;;;;;;5031771;28;20504;-60
2022/05/21 08:12:18;;;;;;;11.43;6.70;;;16.80;92.10;;;;;;5033103;28;20445;-60
2022/05/21 08:14:45;;;;;;;7.10;6.17;;;17.00;92.30;;;;;;5031595;28;21045;-59
2022/05/21 08:17:12;;;;;;;7.77;5.90;;;17.20;91.50;;;;;;5032702;28;20460;-59
2022/05/21 08:19:41;;;;;;;8.80;6.30;;;17.40;90.80;;;;;;5033035;28;20442;-60
2022/05/21 08:27:40;;;;;;;11.77;6.00;;;17.30;90.00;;;;;;5032767;28;20797;-60
2022/05/21 08:30:08;;;;;;;8.73;7.17;;;17.40;90.20;;;;;;5032689;28;20516;-60
2022/05/21 08:32:37;;;;;;;7.57;6.00;;;17.40;88.70;;;;;;5032727;28;20944;-59
2022/05/21 08:35:06;;;;;;;6.27;5.67;;;17.30;88.90;;;;;;5032990;28;20500;-60
2022/05/21 08:37:35;;;;;;;6.43;5.53;;;17.30;89.00;;;;;;5031940;28;20998;-62
2022/05/21 08:40:05;;;;;;;9.87;5.80;;;17.40;88.90;;;;;;5032405;28;20483;-59
2022/05/21 08:42:38;;;;;;;7.40;5.23;;;17.30;88.80;;;;;;5031569;28;20460;-59
2022/05/21 08:45:18;;;;;;;7.63;4.90;;;17.20;88.20;;;;;;5032481;28;20467;-60
2022/05/21 08:47:50;;;;;;;6.23;4.70;;;17.10;88.90;;;;;;5032190;28;20437;-59
2022/05/21 08:50:21;;;;;;;6.87;4.97;;;17.10;88.10;;;;;;5030965;28;20473;-60
2022/05/21 08:52:58;;;;;;;9.73;4.47;;;17.10;88.00;;;;;;5032851;28;20460;-60
2022/05/21 08:55:31;;;;;;;10.80;5.77;;;17.10;87.50;;;;;;5034308;28;20464;-61
2022/05/21 08:58:02;;;;;;;6.90;4.47;;;17.20;88.10;;;;;;5034742;28;20461;-60
2022/05/21 09:00:35;;;;;;;6.30;4.73;;;17.20;86.00;;;;;;5035558;28;20464;-61
2022/05/21 09:03:05;;;;;;;7.63;4.40;;;17.20;85.30;;;;;;5036980;28;20429;-60
2022/05/21 09:05:32;;;;;;;7.50;4.80;;;17.30;83.80;;;;;;5034460;28;20487;-60
2022/05/21 09:08:10;;;;;;;4.00;3.60;;;17.40;82.50;;;;;;5036380;28;20514;-57
2022/05/21 09:10:54;;;;;;;7.20;4.30;;;17.50;82.60;;;;;;5036307;28;20518;-60
2022/05/21 09:13:33;;;;;;;8.50;4.57;;;17.70;81.60;;;;;;5036125;28;20429;-60
2022/05/21 09:18:45;;;;;;;5.83;4.57;;;18.00;78.90;;;;;;5036129;28;20393;-59
2022/05/21 09:21:18;;;;;;;7.53;4.43;;;18.00;79.40;;;;;;5036009;28;20437;-60
2022/05/21 09:23:51;;;;;;;5.83;4.03;;;18.10;78.90;;;;;;5035689;28;20432;-57
2022/05/21 09:26:22;;;;;;;5.30;4.50;;;18.10;78.50;;;;;;5035287;28;20480;-59
2022/05/21 09:28:49;;;;;;;6.03;4.53;;;18.00;78.50;;;;;;5033129;28;20460;-60
2022/05/21 09:31:29;;;;;;;6.00;4.47;;;18.00;78.80;;;;;;5036540;28;20476;-58
2022/05/21 09:33:56;;;;;;;5.27;3.80;;;18.20;77.90;;;;;;5036070;28;20442;-60
2022/05/21 09:36:35;;;;;;;6.93;4.50;;;18.30;76.90;;;;;;5034786;28;20825;-61
2022/05/21 09:39:02;;;;;;;7.07;4.30;;;18.50;76.20;;;;;;5036060;28;20469;-61
2022/05/21 09:41:32;;;;;;;7.40;4.20;;;18.70;75.50;;;;;;5035887;28;20467;-59
2022/05/21 09:47:12;;;;;;;6.23;4.03;;;19.00;72.60;;;;;;5036165;28;20464;-60
2022/05/21 09:49:40;;;;;;;4.57;3.50;;;19.10;72.30;;;;;;5034449;28;20500;-60
2022/05/21 09:52:08;;;;;;;4.27;3.23;;;18.90;71.10;;;;;;5037210;28;20437;-61
2022/05/21 09:54:40;;;;;;;5.93;3.90;;;18.60;71.20;;;;;;5033891;28;20999;-59
2022/05/21 09:57:20;;;;;;;6.50;4.37;;;18.30;73.00;;;;;;5035390;28;20429;-60
2022/05/21 10:00:06;;;;;;;10.37;5.83;;;18.10;76.70;;;;;;5035072;28;20908;-61
2022/05/21 10:02:43;;;;;;;7.47;5.07;;;17.50;86.00;;;;;;5035199;28;20437;-62
2022/05/21 10:05:14;;;;;;;7.77;4.97;;;16.90;92.00;;;;;;5035184;28;20831;-59
2022/05/21 10:13:21;;;;;;;10.10;5.70;;;16.40;95.50;;;;;;5033402;28;21018;-60
2022/05/21 10:15:52;;;;;;;7.47;5.00;;;16.60;95.70;;;;;;5033738;28;20492;-60
2022/05/21 10:18:27;;;;;;;5.73;4.60;;;16.90;95.30;;;;;;5034693;28;20445;-59
2022/05/21 10:21:01;;;;;;;11.27;6.00;;;17.30;94.50;;;;;;5034839;28;20424;-61
2022/05/21 10:23:34;;;;;;;8.07;3.43;;;17.60;92.70;;;;;;5034789;28;20797;-60
2022/05/21 10:26:15;;;;;;;8.60;3.70;;;17.70;91.10;;;;;;5034668;28;20481;-61
2022/05/21 10:29:01;;;;;;;5.13;3.87;;;17.70;89.40;;;;;;5034161;28;20461;-60
2022/05/21 10:31:43;;;;;;;7.43;3.30;;;17.60;86.60;;;;;;5033909;28;20589;-61
2022/05/21 10:34:29;;;;;;;6.43;3.67;;;17.50;85.00;;;;;;5034134;28;20459;-60
2022/05/21 10:37:13;;;;;;;9.80;3.50;;;17.40;83.80;;;;;;5032807;28;20484;-59
2022/05/21 10:40:07;;;;;;;6.00;4.20;;;17.30;84.20;;;;;;5032697;28;20465;-59
2022/05/21 10:42:54;;;;;;;9.93;4.50;;;17.30;85.00;;;;;;5033017;28;20808;-61
2022/05/21 10:45:26;;;;;;;4.43;3.37;;;17.40;84.70;;;;;;5034840;28;20468;-62
2022/05/21 10:48:17;;;;;;;5.77;3.10;;;17.60;83.60;;;;;;5034374;28;20437;-61
2022/05/21 10:50:52;;;;;;;3.33;3.03;;;17.70;80.30;;;;;;5034089;28;20472;-61
2022/05/21 10:53:55;;;;;;;6.43;2.60;;;17.80;78.90;;;;;;5034452;28;20440;-60
2022/05/21 10:56:34;;;;;;;3.47;2.60;;;18.10;76.30;;;;;;5012467;28;20510;-60
2022/05/21 10:59:13;;;;;;;5.67;2.50;;;18.10;73.00;;;;;;5033163;28;20531;-61
2022/05/21 11:01:50;;;;;;;6.83;2.80;;;18.20;72.40;;;;;;5032081;28;20452;-60
2022/05/21 11:04:42;;;;;;;4.57;2.60;;;18.50;72.40;;;;;;5033593;28;20848;-60
2022/05/21 11:07:34;;;;;;;5.00;2.87;;;19.10;70.60;;;;;;5011334;28;20970;-59
2022/05/21 11:10:12;;;;;;;8.57;3.33;;;19.50;65.40;;;;;;5014441;28;20469;-61
2022/05/21 11:12:55;;;;;;;5.73;3.00;;;19.50;64.90;;;;;;5028925;28;20461;-60
2022/05/21 11:15:34;;;;;;;5.30;3.30;;;19.40;64.30;;;;;;5025445;28;20925;-60
2022/05/21 11:18:06;;;;;;;5.60;3.13;;;19.10;65.10;;;;;;5032992;28;20936;-62
2022/05/21 11:20:49;;;;;;;5.93;4.00;;;18.60;69.90;;;;;;5017259;28;20453;-60
2022/05/21 11:23:40;;;;;;;5.30;3.60;;;17.90;77.20;;;;;;5014453;28;20520;-60
2022/05/21 11:26:37;;;;;;;6.60;4.30;;;17.30;85.00;;;;;;5014218;28;20513;-59
2022/05/21 11:29:24;;;;;;;7.53;4.20;;;16.90;89.20;;;;;;5014223;28;20453;-59
2022/05/21 11:37:57;;;;;;;10.37;3.90;;;17.10;89.80;;;;;;5035910;28;20474;-59
2022/05/21 11:47:23;;;;;;;7.23;4.13;;;16.80;90.60;;;;;;5035685;28;20420;-59
2022/05/21 11:49:54;;;;;;;9.33;3.87;;;16.70;91.60;;;;;;5035343;28;20433;-60
2022/05/21 11:52:57;;;;;;;9.00;4.70;;;16.00;94.50;;;;;;5033471;28;20445;-60
2022/05/21 11:55:25;;;;;;;8.70;5.67;;;;;;;;;;5012354;28;20469;-62
2022/05/21 11:57:54;;;;;;;8.03;5.37;;;;;;;;;;5033448;28;20445;-61
2022/05/21 12:00:39;;;;;;;12.70;6.10;;;;;;;;;;5033078;28;20465;-62
2022/05/21 12:03:19;;;;;;;8.00;6.10;;;;;;;;;;5033288;28;20441;-61
2022/05/21 12:06:04;;;;;;;14.37;7.47;;;;;;;;;;5032483;28;20975;-61
2022/05/21 12:08:37;;;;;;;9.10;4.40;;;;;;;;;;5025701;28;20449;-62
2022/05/21 12:11:08;;;;;;;12.20;5.60;;;;;;;;;;5032928;28;20579;-60
2022/05/21 12:13:51;;;;;;;11.80;6.00;;;;;;;;;;5033523;28;20789;-61
2022/05/21 12:16:44;;;;;;;7.33;5.70;;;15.40;97.50;;;;;;5032577;28;20468;-60
2022/05/21 12:19:59;;;;;;;8.93;5.70;;;14.20;99.90;;;;;;5032814;28;20453;-61
2022/05/21 12:22:41;;;;;;;6.07;5.37;;;14.80;99.90;;;;;;5032300;28;20865;-61
2022/05/21 12:27:50;;;;;;;8.93;5.47;;;15.70;99.90;;;;;;5050907;28;20468;-62
2022/05/21 12:30:27;;;;;;;6.40;3.90;;;16.50;99.90;;;;;;5054016;28;20467;-62
2022/05/21 12:32:54;;;;;;;6.50;3.90;;;17.30;99.90;;;;;;5056230;28;20938;-63
2022/05/21 12:35:42;;;;;;;9.53;4.30;;;17.80;99.90;;;;;;5056224;28;21005;-63
2022/05/21 12:38:14;;;;;;;6.47;2.77;;;17.90;97.90;;;;;;5055934;28;20526;-63
2022/05/21 12:40:51;;;;;;;5.17;2.80;;;17.80;96.10;;;;;;5056399;28;20869;-64
2022/05/21 12:43:18;;;;;;;3.00;2.50;;;17.80;95.70;;;;;;5056309;28;20462;-64
2022/05/21 12:45:49;;;;;;;4.37;2.70;;;17.80;94.10;;;;;;5055874;28;20464;-64
2022/05/21 12:48:23;;;;;;;4.37;2.90;;;17.90;93.80;;;;;;5056261;28;20432;-64
2022/05/21 12:50:55;;;;;;;4.50;2.37;;;18.20;92.70;;;;;;5056182;28;20491;-63
2022/05/21 12:53:39;;;;;;;4.10;2.20;;;18.50;90.40;;;;;;5056081;28;20475;-61
2022/05/21 12:56:18;;;;;;;5.20;2.10;;;18.80;85.60;;;;;;5055976;28;21036;-63
2022/05/21 12:58:45;;;;;;;5.53;2.17;;;18.90;79.00;;;;;;5053635;28;20475;-64
2022/05/21 13:01:23;;;;;;;3.40;1.47;;;19.10;75.70;;;;;;5054432;28;20459;-63
2022/05/21 13:03:50;;;;;;;5.40;2.10;;;19.20;73.10;;;;;;5055619;28;20431;-63
2022/05/21 13:06:26;;;;;;;3.97;2.40;;;19.10;71.70;;;;;;5054757;28;20468;-62
2022/05/21 13:08:54;;;;;;;26.77;3.20;;;18.90;71.20;;;;;;5055285;28;20547;-63
2022/05/21 13:11:24;;;;;;;4.63;2.60;;;18.70;72.10;;;;;;5054985;28;21057;-63
2022/05/21 13:13:58;;;;;;;8.37;3.20;;;18.50;73.10;;;;;;5054399;28;20464;-63
2022/05/21 13:16:26;;;;;;;9.13;3.07;;;18.40;74.10;;;;;;5055473;28;20529;-63
2022/05/21 13:19:14;;;;;;;4.90;3.00;;;18.50;74.80;;;;;;5055555;28;20451;-64
2022/05/21 13:21:50;;;;;;;6.47;3.20;;;19.00;74.20;;;;;;5055566;28;20511;-63
2022/05/21 13:24:35;;;;;;;7.07;3.50;;;19.40;72.40;;;;;;5055450;28;20431;-63
2022/05/21 13:27:08;;;;;;;5.37;2.63;;;19.50;70.20;;;;;;5054888;28;20482;-63
2022/05/21 13:29:35;;;;;;;5.40;2.73;;;19.30;68.00;;;;;;5055331;28;20434;-62
2022/05/21 13:32:17;;;;;;;5.37;2.60;;;19.00;67.40;;;;;;5054809;28;20857;-64
2022/05/21 13:34:44;;;;;;;6.03;2.50;;;18.60;68.20;;;;;;5055050;28;20923;-62
2022/05/21 13:37:13;;;;;;;4.57;2.90;;;18.40;69.60;;;;;;5054866;28;20463;-63
2022/05/21 13:39:40;;;;;;;6.73;3.20;;;18.30;71.10;;;;;;5055444;28;20461;-63
2022/05/21 13:42:13;;;;;;;5.00;2.37;;;18.20;72.30;;;;;;5052864;28;20464;-64
2022/05/21 13:44:42;;;;;;;8.60;2.97;;;18.10;73.20;;;;;;5056546;28;20440;-65
2022/05/21 13:47:17;;;;;;;7.27;2.70;;;18.00;74.00;;;;;;5055877;28;20471;-63
2022/05/21 13:49:47;;;;;;;4.00;2.67;;;18.00;75.20;;;;;;5056077;28;20427;-64
2022/05/21 13:52:16;;;;;;;3.47;2.10;;;18.10;75.20;;;;;;5055520;28;20475;-64
2022/05/21 13:54:43;;;;;;;3.33;2.33;;;18.20;73.60;;;;;;5054148;28;20799;-65
2022/05/21 13:57:14;;;;;;;4.93;1.60;;;18.30;73.10;;;;;;5054887;28;20574;-63
2022/05/21 13:59:53;;;;;;;5.73;1.90;;;18.30;70.10;;;;;;5055087;28;20912;-64
2022/05/21 14:02:28;;;;;;;6.40;2.27;;;18.30;69.60;;;;;;5055263;28;20473;-63
2022/05/21 14:04:56;;;;;;;3.13;1.93;;;18.20;69.50;;;;;;5055343;28;20431;-63
2022/05/21 14:07:27;;;;;;;3.37;1.33;;;18.10;69.80;;;;;;5055092;28;20460;-62
2022/05/21 14:09:58;;;;;;;9.87;2.30;;;18.00;70.00;;;;;;5055331;28;20454;-64
2022/05/21 14:12:31;;;;;;;5.77;1.80;;;17.90;70.30;;;;;;5054686;28;20522;-62
2022/05/21 14:15:05;;;;;;;5.40;2.53;;;18.00;69.80;;;;;;5055162;28;20490;-63
2022/05/21 14:17:34;;;;;;;3.57;1.70;;;18.20;69.60;;;;;;5054307;28;20439;-62
2022/05/21 14:20:12;;;;;;;3.03;2.10;;;18.50;68.90;;;;;;5053578;28;20472;-62